Time;durP1;ratioP1;P1;durP2;ratioP2;P2;SDS_P1;SDS_P2;PMS_P1;PMS_P2;Temp;Humidity;BMP_temperature;BMP_pressure;BME280_temperature;BME280_humidity;BME280_pressure;Samples;Min_cycle;Max_cycle;Signal;HPM_P1;HPM_P2
2022/10/01 00:01:04;;;;;;;13.85;2.25;;;;;;;;;;5092446;28;20043;-75
2022/10/01 00:04:08;;;;;;;14.55;2.50;;;;;;;;;;5092572;28;20045;-76
2022/10/01 00:07:14;;;;;;;11.13;2.60;;;;;;;;;;5092361;28;20428;-76
2022/10/01 00:10:18;;;;;;;19.35;3.65;;;;;;;;;;5091461;28;20047;-75
2022/10/01 00:13:42;;;;;;;16.88;2.22;;;;;;;;;;5092248;28;20439;-75
2022/10/01 00:16:46;;;;;;;14.68;2.38;;;;;;;;;;5092253;28;20043;-75
2022/10/01 00:19:50;;;;;;;16.83;2.47;;;;;;;;;;5092087;28;20047;-75
2022/10/01 00:22:55;;;;;;;15.60;2.53;;;;;;;;;;5092024;28;20047;-75
2022/10/01 00:26:14;;;;;;;12.98;2.33;;;;;;;;;;5091729;28;20396;-75
2022/10/01 00:29:18;;;;;;;18.38;2.60;;;;;;;;;;5091927;28;20404;-75
2022/10/01 00:32:22;;;;;;;16.00;2.47;;;;;;;;;;5090769;28;20059;-74
2022/10/01 00:35:27;;;;;;;18.70;2.58;;;;;;;;;;5091790;28;20051;-75
2022/10/01 00:38:32;;;;;;;6.90;1.92;;;;;;;;;;5092022;28;20039;-73
2022/10/01 00:41:37;;;;;;;11.25;2.22;;;;;;;;;;5091473;28;20376;-74
2022/10/01 00:44:41;;;;;;;13.93;2.40;;;;;;;;;;5091783;28;20515;-75
2022/10/01 00:47:51;;;;;;;10.93;1.77;;;;;;;;;;5091029;28;20408;-74
2022/10/01 00:50:56;;;;;;;11.32;2.45;;;;;;;;;;5091325;28;20428;-75
2022/10/01 00:54:07;;;;;;;13.93;2.63;;;;;;;;;;5090527;28;20051;-75
2022/10/01 00:57:14;;;;;;;13.45;2.88;;;;;;;;;;5091613;28;20388;-74
2022/10/01 01:00:19;;;;;;;5.88;1.75;;;;;;;;;;5091391;28;20063;-74
2022/10/01 01:03:23;;;;;;;9.70;1.92;;;;;;;;;;5090990;28;20040;-75
2022/10/01 01:06:27;;;;;;;8.45;2.20;;;;;;;;;;5079011;28;20066;-73
2022/10/01 01:09:36;;;;;;;12.98;2.08;;;;;;;;;;5091261;28;20032;-74
2022/10/01 01:12:40;;;;;;;8.13;1.90;;;;;;;;;;5091141;28;20062;-74
2022/10/01 01:15:44;;;;;;;8.95;2.30;;;;;;;;;;5091543;28;20035;-75
2022/10/01 01:19:21;;;;;;;14.18;2.45;;;;;;;;;;5090807;28;20377;-74
2022/10/01 01:22:29;;;;;;;19.55;3.70;;;;;;;;;;5076841;28;20130;-74
2022/10/01 01:25:58;;;;;;;10.40;2.83;;;;;;;;;;5089516;28;20308;-74
2022/10/01 01:29:08;;;;;;;10.25;2.40;;;;;;;;;;5090247;28;20213;-75
2022/10/01 01:32:21;;;;;;;6.75;2.40;;;;;;;;;;5090287;28;20063;-75
2022/10/01 01:35:38;;;;;;;12.73;2.20;;;;;;;;;;5090752;28;20035;-74
2022/10/01 01:38:48;;;;;;;12.50;2.78;;;;;;;;;;5091034;28;20035;-74
2022/10/01 01:41:54;;;;;;;12.18;2.53;;;;;;;;;;5090725;28;20412;-74
2022/10/01 01:45:00;;;;;;;9.38;1.90;;;;;;;;;;5090957;28;20047;-75
2022/10/01 01:48:05;;;;;;;14.40;2.70;;;;;;;;;;5091112;28;20036;-74
2022/10/01 01:51:13;;;;;;;8.65;2.38;;;;;;;;;;5090638;28;20055;-76
2022/10/01 01:54:18;;;;;;;11.45;2.33;;;;;;;;;;5089938;28;20044;-74
2022/10/01 01:57:23;;;;;;;4.38;1.85;;;;;;;;;;5089814;28;20039;-74
2022/10/01 02:00:27;;;;;;;9.23;2.15;;;;;;;;;;5090107;28;20036;-74
2022/10/01 02:03:33;;;;;;;15.48;2.63;;;;;;;;;;5089965;28;20036;-74
2022/10/01 02:06:48;;;;;;;13.82;2.63;;;;;;;;;;5089844;28;20051;-74
2022/10/01 02:10:03;;;;;;;10.75;2.47;;;;;;;;;;5090756;28;20503;-75
2022/10/01 02:13:14;;;;;;;11.05;2.40;;;;;;;;;;5090353;28;20051;-75
2022/10/01 02:16:29;;;;;;;8.25;1.95;;;;;;;;;;5090704;28;20039;-74
2022/10/01 02:19:33;;;;;;;11.07;3.08;;;;;;;;;;5089767;28;20040;-75
2022/10/01 02:22:41;;;;;;;5.78;1.27;;;;;;;;;;5089844;28;20039;-75
2022/10/01 02:25:48;;;;;;;12.18;2.70;;;;;;;;;;5090157;28;20036;-75
2022/10/01 02:28:54;;;;;;;9.02;2.30;;;;;;;;;;5094127;28;20130;-74
2022/10/01 02:32:00;;;;;;;10.57;2.58;;;;;;;;;;5094178;28;20036;-74
2022/10/01 02:35:09;;;;;;;9.60;2.60;;;;;;;;;;5094121;28;20043;-75
2022/10/01 02:38:15;;;;;;;13.80;2.38;;;;;;;;;;5092968;28;20032;-75
2022/10/01 02:41:24;;;;;;;12.27;2.30;;;;;;;;;;5093395;28;20051;-75
2022/10/01 02:44:36;;;;;;;9.30;2.35;;;;;;;;;;5094069;28;20051;-74
2022/10/01 02:47:44;;;;;;;8.85;2.58;;;;;;;;;;5093737;28;20048;-74
2022/10/01 02:50:51;;;;;;;11.90;2.45;;;;;;;;;;5093073;28;20032;-75
2022/10/01 02:54:00;;;;;;;7.40;2.40;;;;;;;;;;5093898;28;20051;-74
2022/10/01 02:57:23;;;;;;;10.07;2.00;;;;;;;;;;5093887;28;20040;-74
2022/10/01 03:00:28;;;;;;;14.95;2.70;;;;;;;;;;5081150;28;20396;-75
2022/10/01 03:03:32;;;;;;;10.32;2.35;;;;;;;;;;5093241;28;20039;-75
2022/10/01 03:06:36;;;;;;;7.72;2.80;;;;;;;;;;5092954;28;20064;-74
2022/10/01 03:09:41;;;;;;;11.40;2.63;;;;;;;;;;5092847;28;20159;-75
2022/10/01 03:12:45;;;;;;;12.02;2.78;;;;;;;;;;5091880;28;20063;-75
2022/10/01 03:15:50;;;;;;;7.93;2.70;;;;;;;;;;5093026;28;20039;-74
2022/10/01 03:18:54;;;;;;;10.20;2.45;;;;;;;;;;5093213;28;20039;-74
2022/10/01 03:21:58;;;;;;;9.80;3.00;;;;;;;;;;5092877;28;20404;-74
2022/10/01 03:25:03;;;;;;;12.38;2.85;;;;;;;;;;5092474;28;20365;-74
2022/10/01 03:28:09;;;;;;;11.80;2.55;;;;;;;;;;5080505;28;20051;-74
2022/10/01 03:31:13;;;;;;;12.85;3.03;;;;;;;;;;5092450;28;20503;-75
2022/10/01 03:34:17;;;;;;;12.90;3.13;;;;;;;;;;5092937;28;20055;-75
2022/10/01 03:37:22;;;;;;;8.73;3.42;;;;;;;;;;5092405;28;20043;-75
2022/10/01 03:40:27;;;;;;;11.90;3.10;;;;;;;;;;5092878;28;20044;-73
2022/10/01 03:43:32;;;;;;;15.88;3.40;;;;;;;;;;5092870;28;20502;-74
2022/10/01 03:46:37;;;;;;;9.95;2.72;;;;;;;;;;5092702;28;20043;-74
2022/10/01 03:49:41;;;;;;;8.73;2.70;;;;;;;;;;5092716;28;20040;-75
2022/10/01 03:52:46;;;;;;;8.75;3.47;;;;;;;;;;5091630;28;20048;-74
2022/10/01 03:55:50;;;;;;;14.77;3.58;;;;;;;;;;5091878;28;20488;-73
2022/10/01 03:58:54;;;;;;;12.07;3.50;;;;;;;;;;5091702;28;20047;-74
2022/10/01 04:01:59;;;;;;;13.75;3.40;;;;;;;;;;5092495;28;20510;-74
2022/10/01 04:05:04;;;;;;;11.68;3.30;;;;;;;;;;5092613;28;20039;-74
2022/10/01 04:08:09;;;;;;;9.45;3.03;;;;;;;;;;5092372;28;20115;-75
2022/10/01 04:11:14;;;;;;;18.50;3.80;;;;;;;;;;5091376;28;20044;-74
2022/10/01 04:14:18;;;;;;;19.40;4.07;;;;;;;;;;5092664;28;20051;-74
2022/10/01 04:17:22;;;;;;;15.57;3.55;;;;;;;;;;5092181;28;20043;-74
2022/10/01 04:20:27;;;;;;;15.27;3.83;;;;;;;;;;5091479;28;20054;-73
2022/10/01 04:23:31;;;;;;;11.40;3.70;;;;;;;;;;5091407;28;20043;-74
2022/10/01 04:26:36;;;;;;;13.23;3.75;;;;;;;;;;5091041;28;20058;-74
2022/10/01 04:29:40;;;;;;;16.15;3.30;;;;;;;;;;5091787;28;20376;-74
2022/10/01 04:32:44;;;;;;;15.98;3.95;;;;;;;;;;5091603;28;20043;-74
2022/10/01 04:35:49;;;;;;;25.52;5.60;;;;;;;;;;5092057;28;20043;-72
2022/10/01 04:38:54;;;;;;;15.70;3.40;;;;;;;;;;5091492;28;20045;-74
2022/10/01 04:41:59;;;;;;;15.02;3.85;;;;;;;;;;5091548;28;20047;-73
2022/10/01 04:45:05;;;;;;;17.17;3.58;;;;;;;;;;5079231;28;20111;-75
2022/10/01 04:48:09;;;;;;;13.77;3.70;;;;;;;;;;5090878;28;20590;-73
2022/10/01 04:51:14;;;;;;;11.85;3.60;;;;;;;;;;5090736;28;20510;-75
2022/10/01 04:54:18;;;;;;;11.25;3.28;;;;;;;;;;5091467;28;20049;-75
2022/10/01 04:57:23;;;;;;;8.88;2.97;;;;;;;;;;5091540;28;20039;-75
2022/10/01 05:00:27;;;;;;;15.25;3.75;;;;;;;;;;5090616;28;20044;-75
2022/10/01 05:03:32;;;;;;;15.02;4.43;;;;;;;;;;5090406;28;20403;-74
2022/10/01 05:06:37;;;;;;;17.65;4.38;;;;;;;;;;5091511;28;20043;-75
2022/10/01 05:09:41;;;;;;;14.48;4.65;;;;;;;;;;5091524;28;20039;-75
2022/10/01 05:12:47;;;;;;;14.55;4.32;;;;;;;;;;5091114;28;20138;-75
2022/10/01 05:15:52;;;;;;;56.58;27.58;;;;;;;;;;5091199;28;20510;-75
2022/10/01 05:18:57;;;;;;;72.43;29.50;;;;;;;;;;5090776;28;20630;-75
2022/10/01 05:22:03;;;;;;;53.63;29.48;;;;;;;;;;5090948;28;20510;-74
2022/10/01 05:25:08;;;;;;;53.80;32.38;;;;;;;;;;5091054;28;20039;-74
2022/10/01 05:28:12;;;;;;;57.58;28.35;;;;;;;;;;5091039;28;20059;-76
2022/10/01 05:31:18;;;;;;;61.08;22.00;;;;;;;;;;5090964;28;20048;-75
2022/10/01 05:34:23;;;;;;;42.58;17.98;;;;;;;;;;5089920;28;20051;-76
2022/10/01 05:37:28;;;;;;;21.40;10.60;;;;;;;;;;5089906;28;20055;-74
2022/10/01 05:40:32;;;;;;;30.75;9.95;;;;;;;;;;5090016;28;20055;-74
2022/10/01 05:43:37;;;;;;;37.47;11.00;;;;;;;;;;5091036;28;20062;-75
2022/10/01 05:46:42;;;;;;;28.67;9.90;;;;;;;;;;5091048;28;20511;-76
2022/10/01 05:49:47;;;;;;;23.00;8.95;;;;;;;;;;5090672;28;20039;-76
2022/10/01 05:52:53;;;;;;;22.98;8.35;;;;;;;;;;5088598;28;20043;-77
2022/10/01 05:56:01;;;;;;;18.65;6.18;;;;;;;;;;5089698;28;20313;-77
2022/10/01 05:59:06;;;;;;;14.85;4.47;;;;;;;;;;5090272;28;20039;-77
2022/10/01 06:02:10;;;;;;;25.38;4.75;;;;;;;;;;5094861;28;20514;-76
2022/10/01 06:05:15;;;;;;;12.27;4.13;;;;;;;;;;5094740;28;20396;-75
2022/10/01 06:08:20;;;;;;;14.15;4.25;;;;;;;;;;5094228;28;20039;-76
2022/10/01 06:11:25;;;;;;;18.33;4.10;;;;;;;;;;5093786;28;20063;-75
2022/10/01 06:14:30;;;;;;;16.50;4.63;;;;;;;;;;5093560;28;20063;-76
2022/10/01 06:17:35;;;;;;;15.85;5.20;;;;;;;;;;5094529;28;20043;-75
2022/10/01 06:20:39;;;;;;;16.10;3.83;;;;;;;;;;5093464;28;20503;-76
2022/10/01 06:23:44;;;;;;;20.23;4.28;;;;;;;;;;5095135;28;20040;-75
2022/10/01 06:26:48;;;;;;;29.45;6.15;;;;;;;;;;5096080;28;20510;-73
2022/10/01 06:29:53;;;;;;;30.02;5.82;;;;;;;;;;5095166;28;20071;-71
2022/10/01 06:33:02;;;;;;;21.10;5.93;;;;;;;;;;5095875;28;20044;-77
2022/10/01 06:36:06;;;;;;;17.92;4.63;;;;;;;;;;5096386;28;20107;-74
2022/10/01 06:39:10;;;;;;;15.05;4.22;;;;;;;;;;5093598;28;20043;-75
2022/10/01 06:42:15;;;;;;;20.50;5.50;;;;;;;;;;5081633;28;20039;-74
2022/10/01 06:45:19;;;;;;;21.30;4.25;;;;;;;;;;5094333;28;20047;-76
2022/10/01 06:48:23;;;;;;;13.93;4.60;;;;;;;;;;5093045;28;20044;-78
2022/10/01 06:54:50;;;;;;;15.32;3.60;;;;;;;;;;5093982;28;20058;-75
2022/10/01 06:57:55;;;;;;;14.02;3.47;;;;;;;;;;5094292;28;20043;-74
2022/10/01 07:01:00;;;;;;;17.02;3.42;;;;;;;;;;5093567;28;20047;-73
2022/10/01 07:04:05;;;;;;;27.50;6.55;;;;;;;;;;5093460;28;20190;-74
2022/10/01 07:07:09;;;;;;;15.68;3.60;;;;;;;;;;5093560;28;20055;-74
2022/10/01 07:10:14;;;;;;;14.90;4.22;;;;;;;;;;5093717;28;20043;-74
2022/10/01 07:13:19;;;;;;;17.52;4.18;;;;;;;;;;5093019;28;20056;-72
2022/10/01 07:16:23;;;;;;;18.15;3.03;;;;;;;;;;5093484;28;20062;-72
2022/10/01 07:19:30;;;;;;;21.20;4.30;;;;;;;;;;5093435;28;20043;-71
2022/10/01 07:22:35;;;;;;;22.77;4.38;;;;;;;;;;5093004;28;20046;-74
2022/10/01 07:25:40;;;;;;;19.58;4.07;;;;;;;;;;5092312;28;20507;-73
2022/10/01 07:28:45;;;;;;;22.50;4.88;;;;;;;;;;5093016;28;20067;-70
2022/10/01 07:31:59;;;;;;;14.20;4.30;;;;;;;;;;5092040;28;20043;-75
2022/10/01 07:35:04;;;;;;;24.15;4.10;;;;;;;;;;5080467;28;20059;-76
2022/10/01 07:38:09;;;;;;;14.75;4.07;;;;;;;;;;5092223;28;20051;-75
2022/10/01 07:41:15;;;;;;;17.40;3.72;;;;;;;;;;5092905;28;20396;-77
2022/10/01 07:44:19;;;;;;;15.38;3.33;;;;;;;;;;5092932;28;20039;-77
2022/10/01 07:47:24;;;;;;;12.85;3.33;;;;;;;;;;5092984;28;20043;-75
2022/10/01 07:50:29;;;;;;;18.95;3.80;;;;;;;;;;5093434;28;20047;-82
2022/10/01 07:53:34;;;;;;;12.55;3.28;;;;;;;;;;5092916;28;20055;-78
2022/10/01 07:56:38;;;;;;;16.23;3.13;;;;;;;;;;5093160;28;20058;-77
2022/10/01 07:59:43;;;;;;;14.68;3.45;;;;;;;;;;5092908;28;20055;-84
2022/10/01 08:02:49;;;;;;;13.93;2.90;;;;;;;;;;5093474;28;20043;-81
2022/10/01 08:05:53;;;;;;;12.63;3.80;;;;;;;;;;5094221;28;20047;-81
2022/10/01 08:08:57;;;;;;;9.38;2.80;;;;;;;;;;5095881;28;20047;-78
2022/10/01 08:12:02;;;;;;;14.48;3.35;;;;;;;;;;5093010;28;20032;-77
2022/10/01 08:15:09;;;;;;;16.33;4.40;;;;;;;;;;5094742;28;20059;-80
2022/10/01 08:18:13;;;;;;;21.83;3.63;;;;;;;;;;5095077;28;20050;-83
2022/10/01 08:21:18;;;;;;;20.63;4.00;;;;;;;;;;5093800;28;20046;-84
2022/10/01 08:24:22;;;;;;;20.75;3.45;;;;;;;;;;5090851;28;20039;-76
2022/10/01 08:27:27;;;;;;;17.35;3.78;;;;;;;;;;5092888;28;20051;-78
2022/10/01 08:30:31;;;;;;;10.75;2.80;;;;;;;;;;5092014;28;20043;-78
2022/10/01 08:33:37;;;;;;;17.83;3.92;;;;;;;;;;5093100;28;20043;-79
2022/10/01 08:36:41;;;;;;;15.77;3.55;;;;;;;;;;5092444;28;20047;-76
2022/10/01 08:39:46;;;;;;;13.30;3.15;;;;;;;;;;5091831;28;20051;-78
2022/10/01 08:43:05;;;;;;;13.63;3.45;;;;;;;;;;5093091;28;20055;-78
2022/10/01 08:46:13;;;;;;;21.48;4.03;;;;;;;;;;5092217;28;20395;-73
2022/10/01 08:49:25;;;;;;;19.70;3.85;;;;;;;;;;5091705;28;20039;-72
2022/10/01 08:52:30;;;;;;;15.50;2.95;;;;;;;;;;5091557;28;20047;-75
2022/10/01 08:55:36;;;;;;;17.30;3.70;;;;;;;;;;5091473;28;20059;-77
2022/10/01 08:58:43;;;;;;;12.93;3.00;;;;;;;;;;5090049;28;20039;-76
2022/10/01 09:01:48;;;;;;;14.63;2.90;;;;;;;;;;5088681;28;20054;-76
2022/10/01 09:04:58;;;;;;;10.43;2.72;;;;;;;;;;5089237;28;20514;-76
2022/10/01 09:08:22;;;;;;;15.00;2.60;;;;;;;;;;5090579;28;20071;-76
2022/10/01 09:11:28;;;;;;;20.98;3.25;;;;;;;;;;5090850;28;20051;-76
2022/10/01 09:14:52;;;;;;;11.65;3.15;;;;;;;;;;5089330;28;20050;-75
2022/10/01 09:18:00;;;;;;;20.38;3.47;;;;;;;;;;5089466;28;20039;-77
2022/10/01 09:21:09;;;;;;;16.27;3.13;;;;;;;;;;5090552;28;20085;-76
2022/10/01 09:24:25;;;;;;;15.45;3.10;;;;;;;;;;5090758;28;20526;-74
2022/10/01 09:27:30;;;;;;;11.45;2.30;;;;;;;;;;5089768;28;20055;-79
2022/10/01 09:30:36;;;;;;;12.15;2.67;;;;;;;;;;5090949;28;20125;-76
2022/10/01 09:34:01;;;;;;;8.88;2.72;;;;;;;;;;5091321;28;20051;-76
2022/10/01 09:37:25;;;;;;;12.80;2.63;;;;;;;;;;5094354;28;20415;-76
2022/10/01 09:40:33;;;;;;;12.07;2.25;;;;;;;;;;5094957;28;20043;-77
2022/10/01 09:43:42;;;;;;;11.45;2.50;;;;;;;;;;5093800;28;20039;-76
2022/10/01 09:46:46;;;;;;;11.85;2.45;;;;;;;;;;5094938;28;20043;-76
2022/10/01 09:49:50;;;;;;;9.32;1.90;;;;;;;;;;5094783;28;20395;-76
2022/10/01 09:52:55;;;;;;;6.68;2.10;;;;;;;;;;5093790;28;20036;-76
2022/10/01 09:56:04;;;;;;;8.57;1.73;;;;;;;;;;5094696;28;20052;-75
2022/10/01 09:59:17;;;;;;;6.72;1.45;;;;;;;;;;5094775;28;20099;-76
2022/10/01 10:02:32;;;;;;;15.13;4.85;;;;;;;;;;5094542;28;20040;-75
2022/10/01 10:05:41;;;;;;;7.50;1.50;;;;;;;;;;5095054;28;20055;-75
2022/10/01 10:08:45;;;;;;;8.23;1.30;;;;;;;;;;5094744;28;20028;-76
2022/10/01 10:11:50;;;;;;;3.40;1.20;;;;;;;;;;5094497;28;20043;-76
2022/10/01 10:14:57;;;;;;;5.95;1.50;;;;;;;;;;5094023;28;20048;-76
2022/10/01 10:18:11;;;;;;;6.55;1.58;;;;;;;;;;5094443;28;20044;-76
2022/10/01 10:21:18;;;;;;;11.93;2.53;;;;;;;;;;5093527;28;20036;-76
2022/10/01 10:24:33;;;;;;;7.03;2.38;;;;;;;;;;5094177;28;20047;-76
2022/10/01 10:27:37;;;;;;;9.07;1.75;;;;;;;;;;5094198;28;20056;-76
2022/10/01 10:30:42;;;;;;;9.10;2.22;;;;;;;;;;5094170;28;20028;-76
2022/10/01 10:33:47;;;;;;;10.27;1.90;;;;;;;;;;5094357;28;20032;-76
2022/10/01 10:36:57;;;;;;;12.35;1.80;;;;;;;;;;5094486;28;20043;-74
2022/10/01 10:40:01;;;;;;;9.60;2.20;;;;;;;;;;5094187;28;20051;-76
2022/10/01 10:43:15;;;;;;;10.40;1.70;;;;;;;;;;5094138;28;20223;-78
2022/10/01 10:46:30;;;;;;;8.68;1.83;;;;;;;;;;5093295;28;20047;-77
2022/10/01 10:49:43;;;;;;;10.27;2.20;;;;;;;;;;5093931;28;20040;-77
2022/10/01 10:52:47;;;;;;;8.20;2.10;;;;;;;;;;5095197;28;20050;-75
2022/10/01 10:55:55;;;;;;;7.57;1.50;;;;;;;;;;5093642;28;20496;-76
2022/10/01 10:59:07;;;;;;;6.20;1.75;;;;;;;;;;5093655;28;20040;-76
2022/10/01 11:02:15;;;;;;;10.93;2.17;;;;;;;;;;5093247;28;20040;-75
2022/10/01 11:05:23;;;;;;;9.95;2.08;;;;;;;;;;5092678;28;20499;-76
2022/10/01 11:08:28;;;;;;;8.13;2.00;;;;;;;;;;5093208;28;20385;-75
2022/10/01 11:11:36;;;;;;;11.65;2.35;;;;;;;;;;5093459;28;20028;-76
2022/10/01 11:14:41;;;;;;;11.40;2.15;;;;;;;;;;5092976;28;20495;-77
2022/10/01 11:18:00;;;;;;;4.90;1.42;;;;;;;;;;5093260;28;20031;-75
2022/10/01 11:21:10;;;;;;;15.65;2.33;;;;;;;;;;5092966;28;20036;-76
2022/10/01 11:24:34;;;;;;;7.22;2.10;;;;;;;;;;5092534;28;20051;-77
2022/10/01 11:27:46;;;;;;;6.38;1.63;;;;;;;;;;5093080;28;20040;-76
2022/10/01 11:30:57;;;;;;;10.25;1.92;;;;;;;;;;5092777;28;20433;-75
2022/10/01 11:34:06;;;;;;;15.02;2.10;;;;;;;;;;5093437;28;20043;-76
2022/10/01 11:37:16;;;;;;;8.43;2.03;;;;;;;;;;5080759;28;20062;-77
2022/10/01 11:40:26;;;;;;;11.13;2.53;;;;;;;;;;5094341;28;20040;-75
2022/10/01 11:43:32;;;;;;;10.02;1.60;;;;;;;;;;5093545;28;20047;-79
2022/10/01 11:46:47;;;;;;;5.45;1.60;;;;;;;;;;5094440;28;20059;-75
2022/10/01 11:49:51;;;;;;;9.00;1.83;;;;;;;;;;5093716;28;20377;-76
2022/10/01 11:52:56;;;;;;;9.75;1.73;;;;;;;;;;5093525;28;20044;-75
2022/10/01 11:59:33;;;;;;;18.67;2.90;;;;;;;;;;5092552;28;20049;-76
2022/10/01 12:02:48;;;;;;;9.77;2.08;;;;;;;;;;5092230;28;20051;-75
2022/10/01 12:05:53;;;;;;;5.53;1.95;;;;;;;;;;5092158;28;20475;-76
2022/10/01 12:09:04;;;;;;;8.55;2.10;;;;;;;;;;5092685;28;20036;-77
2022/10/01 12:12:18;;;;;;;6.30;1.65;;;;;;;;;;5092643;28;20040;-75
2022/10/01 12:15:29;;;;;;;7.85;1.60;;;;;;;;;;5091155;28;20044;-75
2022/10/01 12:18:46;;;;;;;9.63;1.50;;;;;;;;;;5092543;28;20036;-74
2022/10/01 12:21:57;;;;;;;9.18;1.60;;;;;;;;;;5092583;28;20035;-76
2022/10/01 12:25:01;;;;;;;15.50;2.67;;;;;;;;;;5092866;28;20040;-76
2022/10/01 12:28:14;;;;;;;13.63;2.42;;;;;;;;;;5092210;28;20066;-75
2022/10/01 12:31:25;;;;;;;12.18;1.95;;;;;;;;;;5092693;28;20043;-76
2022/10/01 12:34:29;;;;;;;;;;;;;;;;;;5092859;28;20051;-76
2022/10/01 12:37:43;;;;;;;8.18;1.80;;;;;;;;;;5091881;28;19915;-76
2022/10/01 12:41:00;;;;;;;15.57;1.60;;;;;;;;;;5091878;28;20488;-75
2022/10/01 12:44:16;;;;;;;9.80;1.25;;;;;;;;;;5092964;28;20384;-75
2022/10/01 12:47:41;;;;;;;8.98;1.33;;;;;;;;;;5092039;28;20048;-75
2022/10/01 12:51:04;;;;;;;5.80;1.05;;;;;;;;;;5092393;28;20036;-75
2022/10/01 12:54:09;;;;;;;9.90;2.15;;;;;;;;;;5092619;28;20381;-73
2022/10/01 12:57:16;;;;;;;10.32;1.63;;;;;;;;;;5092036;28;20056;-74
2022/10/01 13:00:22;;;;;;;9.88;1.20;;;;;;;;;;5091500;28;20047;-74
2022/10/01 13:03:37;;;;;;;8.90;1.70;;;;;;;;;;5078663;28;20047;-75
2022/10/01 13:07:02;;;;;;;5.70;1.15;;;;;;;;;;5091587;28;20040;-72
2022/10/01 13:10:24;;;;;;;9.15;1.13;;;;;;;;;;5090096;28;20483;-75
2022/10/01 13:13:33;;;;;;;11.50;1.30;;;;;;;;;;5091546;28;20040;-74
2022/10/01 13:16:37;;;;;;;6.28;1.10;;;;;;;;;;5091390;28;20051;-75
2022/10/01 13:19:48;;;;;;;7.10;1.55;;;;;;;;;;5091385;28;20032;-74
2022/10/01 13:22:54;;;;;;;;;;;;;;;;;;5090876;28;20036;-75
2022/10/01 13:25:58;;;;;;;10.15;1.60;;;;;;;;;;5091163;28;19982;-74
2022/10/01 13:29:12;;;;;;;5.68;1.30;;;;;;;;;;5091430;28;20047;-75
2022/10/01 13:32:43;;;;;;;6.90;1.67;;;;;;;;;;5091534;28;20032;-76
2022/10/01 13:35:52;;;;;;;9.45;1.58;;;;;;;;;;5090455;28;20055;-74
2022/10/01 13:38:57;;;;;;;11.38;2.13;;;;;;;;;;5090971;28;20544;-75
2022/10/01 13:42:04;;;;;;;8.73;1.63;;;;;;;;;;5091280;28;20622;-81
2022/10/01 13:45:20;;;;;;;9.30;1.17;;;;;;;;;;5091548;28;20473;-76
2022/10/01 13:48:31;;;;;;;10.68;1.65;;;;;;;;;;5091252;28;20040;-75
2022/10/01 13:51:36;;;;;;;;;;;;;;;;;;5091935;28;20047;-75
2022/10/01 13:54:49;;;;;;;9.75;1.80;;;;;;;;;;5090180;28;19927;-75
2022/10/01 13:58:12;;;;;;;6.63;1.15;;;;;;;;;;5091172;28;20502;-76
2022/10/01 14:01:19;;;;;;;11.73;1.52;;;;;;;;;;5090928;28;20044;-75
2022/10/01 14:04:30;;;;;;;5.65;1.30;;;;;;;;;;5091439;28;20043;-75
2022/10/01 14:07:36;;;;;;;9.27;1.20;;;;;;;;;;5090345;28;20035;-75
2022/10/01 14:17:56;;;;;;;12.93;2.00;;;;;;;;;;5089915;28;20032;-75
2022/10/01 14:21:27;;;;;;;11.15;3.50;;;;;;;;;;5092180;28;20506;-75
2022/10/01 14:24:31;;;;;;;;;;;;;;;;;;5094585;28;20047;-75
2022/10/01 14:27:42;;;;;;;8.82;2.53;;;;;;;;;;5081756;28;19931;-75
2022/10/01 14:30:52;;;;;;;7.13;1.65;;;;;;;;;;5093826;28;20035;-74
2022/10/01 14:34:11;;;;;;;14.03;1.60;;;;;;;;;;5093439;28;20032;-75
2022/10/01 14:37:17;;;;;;;7.63;2.35;;;;;;;;;;5093291;28;20396;-75
2022/10/01 14:40:22;;;;;;;6.32;1.50;;;;;;;;;;5094056;28;20040;-76
2022/10/01 14:43:27;;;;;;;10.25;1.67;;;;;;;;;;5093930;28;20036;-75
2022/10/01 14:46:35;;;;;;;11.32;2.05;;;;;;;;;;5093866;28;20043;-74
2022/10/01 14:49:39;;;;;;;7.55;1.45;;;;;;;;;;5092995;28;20404;-75
2022/10/01 14:52:45;;;;;;;12.40;1.65;;;;;;;;;;5092972;28;20032;-75
2022/10/01 14:55:50;;;;;;;7.55;1.27;;;;;;;;;;5093553;28;20054;-74
2022/10/01 14:58:56;;;;;;;12.13;1.48;;;;;;;;;;5093778;28;20055;-75
2022/10/01 15:02:01;;;;;;;8.63;2.08;;;;;;;;;;5093151;28;20067;-76
2022/10/01 15:05:14;;;;;;;8.07;1.80;;;;;;;;;;5092790;28;20488;-76
2022/10/01 15:08:22;;;;;;;10.50;1.52;;;;;;;;;;5093009;28;20032;-74
2022/10/01 15:11:28;;;;;;;10.32;1.45;;;;;;;;;;5093171;28;20499;-74
2022/10/01 15:14:32;;;;;;;14.18;1.50;;;;;;;;;;5092877;28;20051;-75
2022/10/01 15:17:36;;;;;;;9.30;1.38;;;;;;;;;;5092867;28;20043;-73
2022/10/01 15:20:58;;;;;;;11.02;1.80;;;;;;;;;;5092795;28;20032;-76
2022/10/01 15:24:04;;;;;;;17.58;2.55;;;;;;;;;;5092037;28;20400;-74
2022/10/01 15:27:09;;;;;;;8.52;1.70;;;;;;;;;;5092502;28;20491;-74
2022/10/01 15:30:17;;;;;;;7.65;1.88;;;;;;;;;;5092830;28;20048;-74
2022/10/01 15:33:32;;;;;;;8.35;1.52;;;;;;;;;;5092251;28;20032;-74
2022/10/01 15:36:36;;;;;;;12.57;2.17;;;;;;;;;;5092698;28;20036;-75
2022/10/01 15:39:47;;;;;;;9.20;1.98;;;;;;;;;;5092850;28;20043;-75
2022/10/01 15:43:06;;;;;;;9.13;2.70;;;;;;;;;;5091385;28;20036;-74
2022/10/01 15:46:32;;;;;;;15.88;2.05;;;;;;;;;;5092590;28;20389;-75
2022/10/01 15:49:36;;;;;;;13.82;2.38;;;;;;;;;;5092494;28;20039;-74
2022/10/01 15:52:53;;;;;;;16.13;2.97;;;;;;;;;;5091704;28;20051;-75
2022/10/01 15:55:58;;;;;;;12.10;3.10;;;;;;;;;;5091113;28;20071;-75
2022/10/01 15:59:12;;;;;;;13.50;3.25;;;;;;;;;;5079955;28;20047;-75
2022/10/01 16:02:19;;;;;;;14.73;2.67;;;;;;;;;;5092062;28;20067;-75
2022/10/01 16:05:26;;;;;;;17.50;2.47;;;;;;;;;;5092109;28;20063;-75
2022/10/01 16:08:33;;;;;;;14.95;3.05;;;;;;;;;;5092043;28;20047;-74
2022/10/01 16:11:56;;;;;;;15.45;2.67;;;;;;;;;;5091266;28;20051;-75
2022/10/01 16:15:01;;;;;;;12.52;1.85;;;;;;;;;;5091946;28;20043;-75
2022/10/01 16:18:20;;;;;;;14.63;2.40;;;;;;;;;;5091811;28;20483;-75
2022/10/01 16:21:25;;;;;;;8.55;2.25;;;;;;;;;;5091351;28;20412;-74
2022/10/01 16:24:32;;;;;;;11.63;1.98;;;;;;;;;;5091579;28;20377;-76
2022/10/01 16:27:49;;;;;;;8.48;1.63;;;;;;;;;;5091520;28;20055;-74
2022/10/01 16:30:54;;;;;;;12.35;2.20;;;;;;;;;;5090461;28;20044;-74
2022/10/01 16:33:58;;;;;;;13.43;2.35;;;;;;;;;;5091240;28;20051;-74
2022/10/01 16:37:03;;;;;;;16.05;2.75;;;;;;;;;;5090649;28;20074;-75
2022/10/01 16:40:08;;;;;;;15.57;2.65;;;;;;;;;;5088607;28;20039;-75
2022/10/01 16:43:23;;;;;;;12.50;3.25;;;;;;;;;;5089924;28;20051;-74
2022/10/01 16:46:27;;;;;;;37.53;9.63;;;;;;;;;;5091037;28;20395;-75
2022/10/01 16:49:32;;;;;;;14.30;2.78;;;;;;;;;;5091051;28;20051;-75
2022/10/01 16:52:36;;;;;;;12.55;2.55;;;;;;;;;;5091968;28;20149;-75
2022/10/01 16:55:41;;;;;;;18.75;3.75;;;;;;;;;;5091517;28;20062;-75
2022/10/01 16:58:45;;;;;;;13.75;3.85;;;;;;;;;;5090716;28;20047;-75
2022/10/01 17:01:53;;;;;;;16.98;3.20;;;;;;;;;;5091145;28;20365;-74
2022/10/01 17:04:57;;;;;;;11.93;2.65;;;;;;;;;;5090824;28;20039;-75
2022/10/01 17:08:03;;;;;;;16.83;3.22;;;;;;;;;;5090992;28;20039;-74
2022/10/01 17:11:10;;;;;;;16.30;2.97;;;;;;;;;;5090478;28;20039;-73
2022/10/01 17:14:15;;;;;;;19.02;4.10;;;;;;;;;;5090748;28;20047;-75
2022/10/01 17:17:19;;;;;;;23.40;4.28;;;;;;;;;;5089679;28;20080;-73
2022/10/01 17:20:25;;;;;;;19.70;2.75;;;;;;;;;;5090225;28;20039;-74
2022/10/01 17:23:29;;;;;;;16.20;2.58;;;;;;;;;;5090458;28;20051;-73
2022/10/01 17:26:33;;;;;;;12.05;2.40;;;;;;;;;;5090316;28;20396;-73
2022/10/01 17:29:37;;;;;;;15.20;2.65;;;;;;;;;;5089494;28;20059;-73
2022/10/01 17:32:42;;;;;;;11.50;2.90;;;;;;;;;;5090852;28;20047;-73
2022/10/01 17:35:50;;;;;;;21.23;3.58;;;;;;;;;;5090375;28;20055;-74
2022/10/01 17:38:55;;;;;;;11.85;3.22;;;;;;;;;;5090016;28;20043;-74
2022/10/01 17:41:59;;;;;;;6.78;2.30;;;;;;;;;;5089710;28;20506;-73
2022/10/01 17:45:05;;;;;;;12.55;2.40;;;;;;;;;;5090295;28;20040;-73
2022/10/01 17:48:10;;;;;;;10.48;2.92;;;;;;;;;;5089814;28;20496;-73
2022/10/01 17:51:15;;;;;;;14.52;2.88;;;;;;;;;;5090799;28;20514;-74
2022/10/01 17:54:20;;;;;;;10.68;2.30;;;;;;;;;;5090346;28;20039;-74
2022/10/01 17:57:24;;;;;;;7.20;2.03;;;;;;;;;;5095949;28;20055;-74
2022/10/01 18:00:29;;;;;;;8.65;2.42;;;;;;;;;;5094142;28;20040;-72
2022/10/01 18:03:33;;;;;;;11.13;2.35;;;;;;;;;;5094844;28;20040;-75
2022/10/01 18:06:38;;;;;;;12.82;2.47;;;;;;;;;;5094012;28;20051;-73
2022/10/01 18:09:44;;;;;;;12.85;2.38;;;;;;;;;;5094772;28;20487;-73
2022/10/01 18:12:49;;;;;;;12.25;2.53;;;;;;;;;;5094623;28;20062;-73
2022/10/01 18:16:00;;;;;;;29.17;12.65;;;;;;;;;;5094465;28;20050;-73
2022/10/01 18:19:05;;;;;;;49.75;23.65;;;;;;;;;;5094558;28;20197;-74
2022/10/01 18:22:13;;;;;;;25.70;11.48;;;;;;;;;;5094243;28;20488;-73
2022/10/01 18:25:18;;;;;;;12.13;3.58;;;;;;;;;;5094027;28;20411;-74
2022/10/01 18:28:22;;;;;;;14.25;3.60;;;;;;;;;;5081098;28;20514;-74
2022/10/01 18:31:28;;;;;;;13.25;2.38;;;;;;;;;;5093402;28;20051;-74
2022/10/01 18:34:36;;;;;;;28.42;11.50;;;;;;;;;;5092708;28;20051;-74
2022/10/01 18:37:45;;;;;;;18.77;8.95;;;;;;;;;;5093527;28;20059;-73
2022/10/01 18:41:01;;;;;;;20.40;6.85;;;;;;;;;;5092412;28;20039;-72
2022/10/01 18:44:13;;;;;;;14.57;3.13;;;;;;;;;;5093793;28;20039;-73
2022/10/01 18:47:30;;;;;;;12.80;4.68;;;;;;;;;;5092001;28;20035;-74